Terminal Aerodrome Forecast
Issued by NWS

Home | Current Version | Previous Version | Graphics & Text | Print | Product List | Glossary On
Versions: 1 2 3 4 5 6 7 8 9 10 11 12 13 14 15 16
000
FTUS43 KMPX 161734
TAFAXN
TAF
KAXN 161734Z 1618/1718 22013KT P6SM SKC
     FM162300 21015G21KT P6SM BKN250
     FM170300 21011KT P6SM BKN100
     FM170900 23007KT 6SM -SN OVC050
     FM171700 31009KT P6SM BKN050=

USA.gov is the U.S. government's official web portal to all federal, state and local government web resources and services.